Time;durP1;ratioP1;P1;durP2;ratioP2;P2;SDS_P1;SDS_P2;PMS_P1;PMS_P2;Temp;Humidity;BMP_temperature;BMP_pressure;BME280_temperature;BME280_humidity;BME280_pressure;Samples;Min_cycle;Max_cycle;Signal;HPM_P1;HPM_P2
2021/12/22 00:00:18;;;;;;;13.30;9.50;;;;;;;0.17;100.00;102761.31;5017517;28;20441;-72
2021/12/22 00:02:48;;;;;;;12.20;8.13;;;;;;;0.28;100.00;102758.94;5029147;28;20188;-72
2021/12/22 00:05:16;;;;;;;13.93;8.77;;;;;;;-0.46;100.00;102654.81;5019752;28;20455;-72
2021/12/22 00:07:42;;;;;;;10.40;7.73;;;;;;;-0.50;100.00;102628.69;5021101;28;20473;-72
2021/12/22 00:10:07;;;;;;;18.67;8.30;;;;;;;0.08;100.00;102757.41;5025785;28;20533;-72
2021/12/22 00:12:33;;;;;;;12.57;7.00;;;;;;;-0.43;100.00;102669.63;5021197;28;20188;-72
2021/12/22 00:14:58;;;;;;;11.43;6.80;;;;;;;-0.13;100.00;102676.81;5016431;28;20294;-72
2021/12/22 00:17:23;;;;;;;9.73;7.43;;;;;;;0.37;100.00;102773.44;5021955;28;20199;-72
2021/12/22 00:19:49;;;;;;;10.93;6.57;;;;;;;-0.10;100.00;102674.84;5021488;28;20246;-72
2021/12/22 00:22:14;;;;;;;10.10;7.50;;;;;;;-0.24;100.00;102638.66;5023360;28;20279;-72
2021/12/22 00:24:40;;;;;;;10.97;8.50;;;;;;;-0.61;100.00;102607.34;5025652;28;20672;-72
2021/12/22 00:27:06;;;;;;;10.00;6.93;;;;;;;0.07;100.00;102758.34;5023142;28;20200;-72
2021/12/22 00:29:31;;;;;;;11.40;7.33;;;;;;;-0.35;100.00;102659.50;5021757;28;20434;-73
2021/12/22 00:32:18;;;;;;;11.30;7.50;;;;;;;0.07;100.00;102781.25;5019619;28;20270;-72
2021/12/22 00:34:52;;;;;;;9.97;7.03;;;;;;;-0.36;100.00;102676.25;5021409;28;20563;-72
2021/12/22 00:37:27;;;;;;;11.60;7.17;;;;;;;0.16;100.00;102770.19;5020099;28;20407;-73
2021/12/22 00:39:54;;;;;;;10.93;7.03;;;;;;;0.19;100.00;102772.66;5027071;28;20524;-74
2021/12/22 00:42:21;;;;;;;11.90;7.67;;;;;;;-0.69;100.00;102649.94;5020984;28;21004;-73
2021/12/22 00:44:51;;;;;;;8.97;7.00;;;;;;;-0.64;100.00;102645.25;5019501;28;20462;-74
2021/12/22 00:47:17;;;;;;;10.63;6.73;;;;;;;0.23;100.00;102763.63;5019594;28;20672;-74
2021/12/22 00:49:43;;;;;;;10.33;7.27;;;;;;;-0.13;100.00;102706.66;5020482;28;20442;-74
2021/12/22 00:52:08;;;;;;;10.50;7.67;;;;;;;0.34;100.00;102776.25;5022143;28;20977;-73
2021/12/22 00:54:34;;;;;;;8.97;6.43;;;;;;;-0.63;100.00;102641.69;5020677;28;20204;-74
2021/12/22 00:57:05;;;;;;;10.80;6.27;;;;;;;-0.24;100.00;102704.59;5017160;28;20195;-74
2021/12/22 00:59:35;;;;;;;12.07;7.73;;;;;;;0.17;100.00;102767.47;5012478;28;20188;-73
2021/12/22 01:02:02;;;;;;;12.57;7.43;;;;;;;0.09;100.00;102763.56;5021120;28;20963;-73
2021/12/22 01:04:28;;;;;;;9.93;7.20;;;;;;;-0.34;100.00;102684.09;5022710;28;20472;-73
2021/12/22 01:06:53;;;;;;;14.00;7.00;;;;;;;-0.55;100.00;102649.16;5016994;28;21071;-73
2021/12/22 01:09:19;;;;;;;10.67;7.50;;;;;;;0.08;100.00;102728.38;5011418;28;20192;-75
2021/12/22 01:11:45;;;;;;;11.17;7.60;;;;;;;-1.26;100.00;102537.00;5025491;28;20234;-74
2021/12/22 01:14:11;;;;;;;11.00;7.10;;;;;;;-0.56;100.00;102661.50;5021003;28;21155;-74
2021/12/22 01:16:37;;;;;;;11.67;6.73;;;;;;;-0.09;100.00;102717.88;5019932;28;20866;-71
2021/12/22 01:19:08;;;;;;;10.80;6.97;;;;;;;-0.41;100.00;102648.44;5020056;28;20501;-74
2021/12/22 01:21:43;;;;;;;11.40;6.77;;;;;;;-0.78;100.00;102647.75;5016611;28;20172;-73
2021/12/22 01:26:45;;;;;;;9.50;6.63;;;;;;;-0.13;100.00;102767.31;5019968;28;21151;-73
2021/12/22 01:29:12;;;;;;;17.53;7.00;;;;;;;-0.08;100.00;102764.47;5021857;28;20431;-73
2021/12/22 01:31:40;;;;;;;10.40;7.80;;;;;;;-0.74;100.00;102678.31;5021114;28;20606;-74
2021/12/22 01:34:05;;;;;;;11.00;7.63;;;;;;;-0.56;100.00;102655.38;5016040;28;20465;-74
2021/12/22 01:36:31;;;;;;;10.00;7.30;;;;;;;-0.08;100.00;102757.38;5019656;28;20788;-73
2021/12/22 01:38:56;;;;;;;12.50;7.70;;;;;;;-0.35;100.00;102729.84;5022041;28;20184;-73
2021/12/22 01:41:22;;;;;;;12.67;7.20;;;;;;;-0.19;100.00;102727.25;5020953;28;20184;-73
2021/12/22 01:43:48;;;;;;;13.00;7.90;;;;;;;-0.28;100.00;102704.84;5021802;28;20692;-73
2021/12/22 01:49:11;;;;;;;10.27;7.10;;;;;;;-0.85;100.00;102701.72;5022294;28;20473;-73
2021/12/22 01:52:01;;;;;;;12.57;8.10;;;;;;;-0.41;100.00;102733.66;5016030;28;20426;-73
2021/12/22 01:54:33;;;;;;;15.27;8.13;;;;;;;-0.72;100.00;102708.91;5022817;28;20457;-73
2021/12/22 01:57:01;;;;;;;8.80;7.07;;;;;;;-0.11;100.00;102762.84;5020208;28;21069;-74
2021/12/22 01:59:27;;;;;;;12.83;7.90;;;;;;;-0.76;100.00;102649.38;5019711;28;20427;-72
2021/12/22 02:01:53;;;;;;;13.37;7.33;;;;;;;-0.49;100.00;102714.78;5018707;28;20810;-73
2021/12/22 02:04:18;;;;;;;11.43;7.90;;;;;;;-1.11;100.00;102666.16;5017443;28;20196;-72
2021/12/22 02:06:46;;;;;;;8.60;7.00;;;;;;;-1.28;100.00;102681.03;5020466;28;20482;-72
2021/12/22 02:09:20;;;;;;;11.03;6.60;;;;;;;-2.73;100.00;102453.16;5024300;28;20306;-71
2021/12/22 02:11:45;;;;;;;11.50;7.13;;;;;;;-1.64;100.00;102646.88;5019409;28;20849;-71
2021/12/22 02:14:11;;;;;;;15.30;7.73;;;;;;;-1.65;100.00;102653.91;5021491;28;20545;-71
2021/12/22 02:16:39;;;;;;;11.33;7.03;;;;;;;-1.26;100.00;102675.69;5017454;28;20905;-71
2021/12/22 02:19:07;;;;;;;12.13;7.57;;;;;;;-1.00;100.00;102769.22;5017743;28;20267;-71
2021/12/22 02:21:38;;;;;;;10.53;6.67;;;;;;;-1.10;100.00;102749.50;5015170;28;20435;-73
2021/12/22 02:24:04;;;;;;;11.80;7.90;;;;;;;-1.37;100.00;102705.19;5019155;28;21024;-74
2021/12/22 02:26:45;;;;;;;10.70;7.20;;;;;;;-0.83;100.00;102763.09;5023162;28;21058;-74
2021/12/22 02:29:34;;;;;;;10.30;8.00;;;;;;;-0.91;100.00;102774.00;5022073;28;20485;-74
2021/12/22 02:32:13;;;;;;;10.30;8.20;;;;;;;-1.63;100.00;102678.34;5018167;28;20430;-73
2021/12/22 02:34:44;;;;;;;13.00;7.97;;;;;;;-1.55;100.00;102716.63;5022649;28;20458;-73
2021/12/22 02:37:14;;;;;;;12.07;8.20;;;;;;;-1.52;100.00;102713.84;5024046;28;20448;-73
2021/12/22 02:40:08;;;;;;;16.60;8.10;;;;;;;-1.01;100.00;102755.19;5023654;28;21418;-73
2021/12/22 02:42:34;;;;;;;12.00;7.77;;;;;;;-1.35;100.00;102713.88;5017181;28;20510;-73
2021/12/22 02:45:12;;;;;;;13.73;8.07;;;;;;;-2.25;100.00;102574.41;5028142;28;20894;-73
2021/12/22 02:47:38;;;;;;;10.90;8.30;;;;;;;-1.68;100.00;102676.88;5018104;28;20470;-74
2021/12/22 02:50:05;;;;;;;13.87;7.77;;;;;;;-1.26;100.00;102766.06;5018285;28;20448;-73
2021/12/22 02:52:39;;;;;;;12.17;9.10;;;;;;;-1.50;100.00;102746.22;5022553;28;20245;-73
2021/12/22 02:55:05;;;;;;;12.60;8.40;;;;;;;-1.90;100.00;102659.50;5021361;28;20454;-74
2021/12/22 02:57:43;;;;;;;12.57;8.90;;;;;;;-1.36;100.00;102772.69;5020309;28;20442;-73
2021/12/22 03:00:32;;;;;;;14.33;8.23;;;;;;;-2.18;100.00;102640.69;5022659;28;21698;-74
2021/12/22 03:03:14;;;;;;;14.27;9.33;;;;;;;-1.36;100.00;102767.44;5018546;28;20445;-73
2021/12/22 03:05:40;;;;;;;13.13;8.13;;;;;;;-1.40;100.00;102732.50;5021012;28;20422;-73
2021/12/22 03:08:05;;;;;;;11.77;8.10;;;;;;;-2.07;100.00;102636.63;5018193;28;20504;-73
2021/12/22 03:10:31;;;;;;;13.73;9.97;;;;;;;-1.41;100.00;102758.91;5017059;28;20440;-73
2021/12/22 03:13:02;;;;;;;12.33;8.23;;;;;;;-2.00;100.00;102650.31;5020862;28;20196;-73
2021/12/22 03:15:28;;;;;;;13.33;9.20;;;;;;;-3.36;100.00;102478.84;5018019;28;20204;-74
2021/12/22 03:17:53;;;;;;;11.50;8.63;;;;;;;-1.60;100.00;102672.09;5022378;28;20439;-74
2021/12/22 03:20:19;;;;;;;14.47;8.30;;;;;;;-2.46;100.00;102562.28;5018290;28;20848;-73
2021/12/22 03:22:45;;;;;;;13.27;8.23;;;;;;;-2.21;100.00;102635.56;5025015;28;20307;-74
2021/12/22 03:25:16;;;;;;;12.23;7.67;;;;;;;-2.58;100.00;102576.84;5023066;28;20214;-74
2021/12/22 03:27:47;;;;;;;9.73;8.10;;;;;;;-2.25;100.00;102641.91;5022444;28;20458;-74
2021/12/22 03:30:15;;;;;;;10.50;8.30;;;;;;;-1.97;100.00;102630.94;5020147;28;20431;-74
2021/12/22 03:32:40;;;;;;;11.07;7.70;;;;;;;-2.38;100.00;102616.19;5023887;28;20481;-73
2021/12/22 03:35:07;;;;;;;8.87;7.97;;;;;;;-1.95;100.00;102637.81;5026628;28;20584;-72
2021/12/22 03:37:33;;;;;;;11.03;8.00;;;;;;;-1.81;100.00;102705.56;5018530;28;20185;-72
2021/12/22 03:39:58;;;;;;;11.03;7.63;;;;;;;-2.45;100.00;102599.00;5021708;28;20512;-72
2021/12/22 03:42:24;;;;;;;9.90;7.83;;;;;;;-1.16;100.00;102761.19;5027251;28;20185;-73
2021/12/22 03:44:49;;;;;;;10.53;7.63;;;;;;;-1.63;100.00;102690.66;5023146;28;21825;-72
2021/12/22 03:47:14;;;;;;;11.30;8.70;;;;;;;-1.63;100.00;102693.28;5020733;28;20212;-73
2021/12/22 03:49:40;;;;;;;11.50;8.90;;;;;;;-1.77;100.00;102666.78;5027129;28;20536;-73
2021/12/22 03:52:06;;;;;;;11.73;8.40;;;;;;;-2.08;100.00;102627.06;5020951;28;20191;-72
2021/12/22 03:54:31;;;;;;;13.93;7.80;;;;;;;-1.83;100.00;102646.91;5022221;28;21927;-72
2021/12/22 03:56:57;;;;;;;9.77;7.33;;;;;;;-1.92;100.00;102669.22;5020475;28;20252;-72
2021/12/22 03:59:23;;;;;;;11.40;8.00;;;;;;;-1.60;100.00;102708.94;5023615;28;20184;-72
2021/12/22 04:01:50;;;;;;;11.10;8.20;;;;;;;-1.14;100.00;102754.94;5023769;28;20303;-71
2021/12/22 04:04:18;;;;;;;12.07;7.63;;;;;;;-1.26;100.00;102721.31;5021334;28;20458;-71
2021/12/22 04:06:45;;;;;;;8.90;7.60;;;;;;;-1.15;100.00;102755.88;5019743;28;20514;-73
2021/12/22 04:09:13;;;;;;;11.37;8.30;;;;;;;-2.07;100.00;102635.78;5018602;28;20525;-71
2021/12/22 04:11:39;;;;;;;10.00;7.93;;;;;;;-1.87;100.00;102674.28;5018813;28;20469;-72
2021/12/22 04:14:05;;;;;;;11.70;8.97;;;;;;;-1.35;100.00;102756.00;5023038;28;20537;-71
2021/12/22 04:16:31;;;;;;;10.63;7.50;;;;;;;-1.95;100.00;102689.56;5021801;28;20187;-74
2021/12/22 04:18:56;;;;;;;12.30;8.23;;;;;;;-1.80;100.00;102730.94;5020825;28;20831;-71
2021/12/22 04:21:22;;;;;;;11.20;8.07;;;;;;;-1.95;100.00;102695.69;5017376;28;20214;-71
2021/12/22 04:23:47;;;;;;;11.87;8.07;;;;;;;-1.78;100.00;102733.50;5024280;28;20695;-71
2021/12/22 04:26:13;;;;;;;10.47;8.60;;;;;;;-2.10;100.00;102709.56;5024244;28;20652;-73
2021/12/22 04:28:41;;;;;;;12.10;8.17;;;;;;;-2.32;100.00;102643.94;5020636;28;20204;-74
2021/12/22 04:31:06;;;;;;;13.53;7.97;;;;;;;-2.13;100.00;102705.28;5015448;28;20237;-74
2021/12/22 04:33:32;;;;;;;10.60;9.00;;;;;;;-2.06;100.00;102701.44;5024500;28;20467;-74
2021/12/22 04:35:57;;;;;;;10.10;7.73;;;;;;;-2.69;100.00;102642.16;5017660;28;20535;-74
2021/12/22 04:38:24;;;;;;;9.90;8.40;;;;;;;-2.39;100.00;102705.63;5020214;28;20290;-73
2021/12/22 04:40:50;;;;;;;10.40;7.90;;;;;;;-1.93;100.00;102756.13;5018902;28;20185;-74
2021/12/22 04:43:15;;;;;;;9.77;8.07;;;;;;;-2.28;100.00;102700.72;5018366;28;20461;-73
2021/12/22 04:45:41;;;;;;;8.23;7.43;;;;;;;-2.26;100.00;102696.25;5020093;28;20219;-72
2021/12/22 04:48:06;;;;;;;10.30;8.20;;;;;;;-1.95;100.00;102748.28;5022833;28;20173;-73
2021/12/22 04:50:33;;;;;;;11.47;8.50;;;;;;;-2.70;100.00;102658.84;5023548;28;20180;-72
2021/12/22 04:53:13;;;;;;;10.13;8.33;;;;;;;-2.03;100.00;102746.94;5026125;28;20239;-73
2021/12/22 04:55:39;;;;;;;14.00;9.30;;;;;;;-1.98;100.00;102744.94;5023432;28;20601;-73
2021/12/22 04:58:04;;;;;;;10.93;8.03;;;;;;;-2.74;100.00;102629.22;5019827;28;20721;-73
2021/12/22 05:00:33;;;;;;;9.07;7.87;;;;;;;-2.31;100.00;102728.00;5025045;28;20442;-75
2021/12/22 05:02:59;;;;;;;13.00;8.50;;;;;;;-2.17;100.00;102698.47;5021526;28;20192;-73
2021/12/22 05:05:25;;;;;;;12.00;7.40;;;;;;;-3.34;100.00;102528.63;5023571;28;20469;-73
2021/12/22 05:07:51;;;;;;;8.20;7.40;;;;;;;-2.32;100.00;102700.00;5021467;28;20957;-72
2021/12/22 05:10:17;;;;;;;12.20;7.83;;;;;;;-2.18;100.00;102720.41;5020696;28;20443;-73
2021/12/22 05:12:44;;;;;;;10.23;7.40;;;;;;;-2.72;100.00;102635.25;5024489;28;26680;-73
2021/12/22 05:15:10;;;;;;;11.50;8.37;;;;;;;-2.36;100.00;102713.38;5021364;28;20473;-73
2021/12/22 05:20:06;;;;;;;9.30;7.77;;;;;;;-2.94;100.00;102652.91;5016663;28;21130;-73
2021/12/22 05:22:33;;;;;;;9.70;7.80;;;;;;;-2.68;100.00;102696.41;5020068;28;20481;-73
2021/12/22 05:24:59;;;;;;;11.40;8.80;;;;;;;-3.25;100.00;102605.19;5015622;28;20470;-73
2021/12/22 05:27:25;;;;;;;9.27;7.60;;;;;;;-3.24;100.00;102577.16;5020107;28;20431;-73
2021/12/22 05:29:51;;;;;;;8.50;7.57;;;;;;;-2.87;100.00;102663.06;5017548;28;20442;-73
2021/12/22 05:32:16;;;;;;;12.03;8.47;;;;;;;-2.79;100.00;102683.72;5019582;28;20448;-73
2021/12/22 05:34:41;;;;;;;10.20;8.63;;;;;;;-3.23;100.00;102607.75;5016936;28;20208;-72
2021/12/22 05:37:07;;;;;;;16.57;9.43;;;;;;;-3.11;100.00;102661.50;5020872;28;20238;-73
2021/12/22 05:39:32;;;;;;;11.33;8.33;;;;;;;-2.93;100.00;102668.56;5011012;28;20395;-73
2021/12/22 05:41:59;;;;;;;9.97;8.03;;;;;;;-3.80;100.00;102522.75;5014198;28;20223;-73
2021/12/22 05:44:25;;;;;;;10.43;8.30;;;;;;;-2.76;100.00;102700.22;5019871;28;20345;-73
2021/12/22 05:46:50;;;;;;;11.73;8.90;;;;;;;-3.17;100.00;102638.97;5016010;28;22448;-73
2021/12/22 05:49:15;;;;;;;8.67;7.87;;;;;;;-3.13;100.00;102656.28;5024037;28;20184;-73
2021/12/22 05:51:41;;;;;;;13.63;8.37;;;;;;;-2.97;100.00;102654.72;5018822;28;20196;-73
2021/12/22 05:54:06;;;;;;;11.87;8.70;;;;;;;-2.94;100.00;102671.28;5015064;28;20222;-73
2021/12/22 05:56:32;;;;;;;9.80;8.57;;;;;;;-3.37;100.00;102586.50;5022061;28;20659;-73
2021/12/22 05:58:57;;;;;;;11.37;8.37;;;;;;;-3.15;100.00;102605.66;5035045;28;20687;-73
2021/12/22 06:01:23;;;;;;;9.33;8.33;;;;;;;-2.59;100.00;102696.84;5018234;28;20213;-73
2021/12/22 06:03:48;;;;;;;12.43;8.03;;;;;;;-3.57;100.00;102554.09;5024844;28;20200;-73
2021/12/22 06:06:14;;;;;;;12.10;7.87;;;;;;;-2.61;100.00;102693.41;5023994;28;20187;-73
2021/12/22 06:08:40;;;;;;;11.70;7.50;;;;;;;-3.16;100.00;102610.97;5024095;28;20195;-72
2021/12/22 06:11:05;;;;;;;11.07;7.83;;;;;;;-4.15;100.00;102459.53;5024213;28;20545;-73
2021/12/22 06:13:30;;;;;;;9.60;7.10;;;;;;;-3.28;100.00;102641.22;5013493;28;20676;-72
2021/12/22 06:15:56;;;;;;;9.77;8.50;;;;;;;-2.85;100.00;102636.75;5014791;28;20185;-73
2021/12/22 06:18:21;;;;;;;10.67;7.67;;;;;;;-3.28;100.00;102601.84;5015082;28;20216;-73
2021/12/22 06:20:47;;;;;;;9.97;7.63;;;;;;;-3.24;100.00;102611.28;5013277;28;20648;-73
2021/12/22 06:23:12;;;;;;;9.93;7.80;;;;;;;-3.41;100.00;102547.28;5011112;28;20438;-73
2021/12/22 06:25:38;;;;;;;11.67;8.37;;;;;;;-2.81;100.00;102691.66;5006781;28;20252;-74
2021/12/22 06:28:04;;;;;;;10.00;8.30;;;;;;;-3.54;100.00;102555.72;5010949;28;20312;-74
2021/12/22 06:30:30;;;;;;;10.90;7.87;;;;;;;-2.69;100.00;102700.81;5009908;28;20192;-73
2021/12/22 06:32:55;;;;;;;11.73;8.90;;;;;;;-2.97;100.00;102678.38;5008200;28;22571;-73
2021/12/22 06:35:21;;;;;;;10.60;8.67;;;;;;;-3.65;100.00;102529.94;5017064;28;20273;-72
2021/12/22 06:37:47;;;;;;;10.50;9.40;;;;;;;-2.89;100.00;102688.53;5018974;28;20588;-72
2021/12/22 06:40:13;;;;;;;9.90;8.90;;;;;;;-3.10;100.00;102661.41;5016823;28;20184;-72
2021/12/22 06:42:39;;;;;;;9.53;8.27;;;;;;;-3.01;100.00;102678.53;5016170;28;20450;-72
2021/12/22 06:45:07;;;;;;;12.50;9.13;;;;;;;-3.29;100.00;102640.38;5016811;28;20470;-72
2021/12/22 06:47:33;;;;;;;12.57;9.10;;;;;;;-3.61;100.00;102604.13;5015924;28;20438;-72
2021/12/22 06:49:58;;;;;;;12.10;9.30;;;;;;;-3.27;100.00;102671.78;5017408;28;20450;-72
2021/12/22 06:52:24;;;;;;;12.60;9.70;;;;;;;-3.46;100.00;102653.34;5018116;28;20204;-72
2021/12/22 06:54:49;;;;;;;11.90;8.83;;;;;;;-3.59;100.00;102637.22;5024789;28;20254;-72
2021/12/22 06:57:19;;;;;;;14.13;10.40;;;;;;;-3.17;100.00;102701.97;5020585;28;20211;-72
2021/12/22 06:59:44;;;;;;;11.77;9.77;;;;;;;-3.20;100.00;102678.50;5025955;28;20192;-72
2021/12/22 07:02:09;;;;;;;16.73;10.37;;;;;;;-3.98;100.00;102566.31;5019483;28;20878;-72
2021/12/22 07:04:35;;;;;;;13.00;10.40;;;;;;;-3.26;100.00;102695.34;5026327;28;20203;-72
2021/12/22 07:07:00;;;;;;;12.43;9.70;;;;;;;-3.72;100.00;102607.19;5021380;28;20296;-72
2021/12/22 07:09:26;;;;;;;14.50;10.50;;;;;;;-3.99;100.00;102541.00;5021499;28;20227;-72
2021/12/22 07:11:52;;;;;;;14.37;10.10;;;;;;;-3.45;100.00;102627.03;5016577;28;21192;-72
2021/12/22 07:14:18;;;;;;;12.83;10.07;;;;;;;-2.87;100.00;102693.72;5017853;28;20337;-72
2021/12/22 07:16:45;;;;;;;12.40;9.70;;;;;;;-3.76;100.00;102538.28;5017809;28;20529;-72
2021/12/22 07:19:11;;;;;;;12.90;10.60;;;;;;;-3.03;100.00;102690.91;5019325;28;20442;-72
2021/12/22 07:21:37;;;;;;;12.03;9.87;;;;;;;-3.51;100.00;102559.06;5020983;28;20500;-72
2021/12/22 07:24:03;;;;;;;13.93;10.30;;;;;;;-3.31;100.00;102607.22;5020431;28;20466;-72
2021/12/22 07:26:28;;;;;;;12.50;10.40;;;;;;;-3.60;100.00;102567.34;5025846;28;20182;-72
2021/12/22 07:28:54;;;;;;;16.80;9.83;;;;;;;-3.56;100.00;102565.44;5025521;28;20474;-72
2021/12/22 07:31:19;;;;;;;15.97;11.50;;;;;;;-3.54;100.00;102568.84;5020298;28;20192;-72
2021/12/22 07:34:12;;;;;;;12.67;9.97;;;;;;;-3.61;100.00;102567.41;5030905;28;20206;-72
2021/12/22 07:36:55;;;;;;;15.60;10.70;;;;;;;-3.08;100.00;102651.72;4986517;28;20199;-72
2021/12/22 07:39:20;;;;;;;17.83;11.97;;;;;;;-3.16;100.00;102632.81;5016199;28;20530;-72
2021/12/22 07:41:45;;;;;;;15.10;10.17;;;;;;;-3.66;100.00;102571.06;5026687;28;20438;-73
2021/12/22 07:44:11;;;;;;;13.03;10.23;;;;;;;-3.42;100.00;102584.91;5024699;28;20217;-72
2021/12/22 07:46:36;;;;;;;17.23;10.70;;;;;;;-3.44;100.00;102615.63;5021892;28;20184;-72
2021/12/22 07:49:02;;;;;;;15.10;11.50;;;;;;;-3.46;100.00;102582.50;5023980;28;20196;-73
2021/12/22 07:51:27;;;;;;;14.10;9.73;;;;;;;-2.93;100.00;102679.06;5020367;28;20553;-74
2021/12/22 07:53:53;;;;;;;13.37;10.60;;;;;;;-2.99;100.00;102639.97;5026117;28;20232;-73
2021/12/22 07:56:18;;;;;;;13.77;10.33;;;;;;;-4.45;100.00;102423.22;5019373;28;20192;-72
2021/12/22 07:58:44;;;;;;;13.20;9.23;;;;;;;-3.11;100.00;102641.34;5025716;28;20220;-72
2021/12/22 08:01:09;;;;;;;15.33;11.03;;;;;;;-2.76;100.00;102660.81;5019260;28;20277;-73
2021/12/22 08:03:34;;;;;;;14.63;9.90;;;;;;;-3.16;100.00;102616.22;5028262;28;21099;-73
2021/12/22 08:06:00;;;;;;;12.20;10.10;;;;;;;-3.36;100.00;102577.69;5020444;28;20233;-72
2021/12/22 08:08:33;;;;;;;14.17;9.90;;;;;;;-3.60;100.00;102562.09;5026054;28;20225;-74
2021/12/22 08:11:01;;;;;;;10.17;9.00;;;;;;;-2.63;100.00;102679.53;5020820;28;20180;-73
2021/12/22 08:13:27;;;;;;;13.83;10.10;;;;;;;-3.64;100.00;102543.00;5025022;28;20497;-75
2021/12/22 08:15:52;;;;;;;14.27;9.77;;;;;;;-3.60;100.00;102564.72;5028796;28;20430;-73
2021/12/22 08:18:17;;;;;;;17.23;10.67;;;;;;;-3.26;100.00;102607.88;5025624;28;20632;-73
2021/12/22 08:20:43;;;;;;;15.33;9.73;;;;;;;-2.90;100.00;102672.84;5013588;28;20184;-73
2021/12/22 08:23:09;;;;;;;11.87;9.43;;;;;;;-3.69;100.00;102525.78;5022153;28;20188;-73
2021/12/22 08:25:35;;;;;;;14.97;10.70;;;;;;;-2.83;100.00;102646.25;5023064;28;20176;-73
2021/12/22 08:28:00;;;;;;;14.73;10.87;;;;;;;-3.50;100.00;102557.28;5022533;28;23333;-73
2021/12/22 08:30:27;;;;;;;14.83;10.33;;;;;;;-2.85;100.00;102666.47;5011043;28;20187;-73
2021/12/22 08:32:53;;;;;;;18.13;11.43;;;;;;;-2.63;100.00;102669.00;5026183;28;20196;-73
2021/12/22 08:35:20;;;;;;;19.20;11.57;;;;;;;-3.05;100.00;102551.81;5028759;28;23467;-73
2021/12/22 08:40:30;;;;;;;17.23;11.57;;;;;;;-2.75;100.00;102654.66;5030066;28;20437;-73
2021/12/22 08:42:55;;;;;;;17.80;11.60;;;;;;;-2.83;100.00;102625.25;5028143;28;20449;-73
2021/12/22 08:45:21;;;;;;;16.17;10.80;;;;;;;-2.68;100.00;102641.25;5029534;28;20196;-73
2021/12/22 08:47:47;;;;;;;16.47;10.50;;;;;;;-2.29;100.00;102681.47;5025502;28;20176;-73
2021/12/22 08:50:15;;;;;;;12.20;9.70;;;;;;;-2.21;100.00;102675.84;5022475;28;20194;-72
2021/12/22 08:52:40;;;;;;;13.77;9.90;;;;;;;-2.28;100.00;102683.19;5025335;28;20878;-73
2021/12/22 08:55:06;;;;;;;13.37;9.60;;;;;;;-3.35;100.00;102492.84;5021018;28;20474;-72
2021/12/22 08:57:32;;;;;;;15.63;10.70;;;;;;;-2.66;100.00;102616.63;5018474;28;20743;-73
2021/12/22 08:59:58;;;;;;;15.57;9.50;;;;;;;-2.20;100.00;102674.06;5023183;28;20515;-73
2021/12/22 09:02:24;;;;;;;11.60;9.80;;;;;;;-2.99;100.00;102519.19;5016630;28;20266;-71
2021/12/22 09:04:50;;;;;;;14.40;9.97;;;;;;;-2.47;100.00;102544.81;5025233;28;20458;-74
2021/12/22 09:07:15;;;;;;;14.30;10.00;;;;;;;-2.96;100.00;102540.03;5024663;28;20436;-72
2021/12/22 09:09:40;;;;;;;15.43;10.47;;;;;;;-2.57;100.00;102612.72;5021624;28;20656;-73
2021/12/22 09:12:07;;;;;;;11.80;9.30;;;;;;;-2.18;100.00;102672.25;5015783;28;20685;-71
2021/12/22 09:14:32;;;;;;;13.57;10.27;;;;;;;-2.78;100.00;102568.13;5017219;28;20246;-71
2021/12/22 09:16:58;;;;;;;13.57;10.10;;;;;;;-2.45;100.00;102606.03;5023343;28;20930;-70
2021/12/22 09:19:24;;;;;;;17.00;9.50;;;;;;;-2.43;100.00;102602.44;5025634;28;20186;-70
2021/12/22 09:21:51;;;;;;;19.80;10.00;;;;;;;-2.40;100.00;102618.03;5029138;28;20183;-70
2021/12/22 09:24:16;;;;;;;15.30;10.83;;;;;;;-2.25;100.00;102627.00;5014679;28;20204;-70
2021/12/22 09:26:42;;;;;;;14.87;10.07;;;;;;;-2.26;100.00;102620.00;5022774;28;20741;-73
2021/12/22 09:29:07;;;;;;;13.10;9.03;;;;;;;-2.51;100.00;102575.66;5026179;28;20183;-71
2021/12/22 09:31:32;;;;;;;18.43;10.17;;;;;;;-1.74;100.00;102675.38;5023390;28;20616;-69
2021/12/22 09:33:58;;;;;;;15.47;10.10;;;;;;;-1.82;100.00;102690.72;5022257;28;20215;-71
2021/12/22 09:36:24;;;;;;;14.30;9.87;;;;;;;-1.89;100.00;102684.03;5024049;28;20180;-72
2021/12/22 09:38:49;;;;;;;14.63;9.93;;;;;;;-1.98;100.00;102618.72;5025763;28;20631;-71
2021/12/22 09:41:15;;;;;;;15.17;9.43;;;;;;;-2.17;100.00;102561.75;5019709;28;20479;-71
2021/12/22 09:43:41;;;;;;;13.20;9.40;;;;;;;-2.06;100.00;102564.69;5017906;28;20297;-72
2021/12/22 09:46:10;;;;;;;12.60;9.20;;;;;;;-1.25;100.00;102667.72;5022553;28;20238;-71
2021/12/22 09:53:43;;;;;;;14.47;8.73;;;;;;;-1.04;100.00;102688.63;5026650;28;20484;-73
2021/12/22 09:56:14;;;;;;;12.03;8.77;;;;;;;-0.80;100.00;102678.63;5019570;28;20638;-75
2021/12/22 09:58:42;;;;;;;12.53;9.70;;;;;;;-1.23;100.00;102602.66;5014608;28;20860;-69
2021/12/22 10:01:07;;;;;;;14.50;10.17;;;;;;;-0.78;100.00;102667.06;5012640;28;20492;-69
2021/12/22 10:03:33;;;;;;;15.33;11.47;;;;;;;-1.42;100.00;102571.19;5019534;28;21023;-70
2021/12/22 10:05:58;;;;;;;15.73;11.23;;;;;;;-1.17;100.00;102576.00;5014561;28;20948;-71
2021/12/22 10:08:26;;;;;;;14.03;10.63;;;;;;;-0.58;100.00;102671.28;5020655;28;20207;-70
2021/12/22 10:11:10;;;;;;;15.93;9.03;;;;;;;-0.62;100.00;102659.19;5017061;28;20333;-71
2021/12/22 10:13:38;;;;;;;17.60;10.90;;;;;;;-1.47;100.00;102543.41;5022202;28;20462;-72
2021/12/22 10:16:30;;;;;;;16.83;10.17;;;;;;;-0.95;100.00;102628.44;5014554;28;20446;-71
2021/12/22 10:19:09;;;;;;;16.10;10.80;;;;;;;-0.54;100.00;102667.56;5006826;28;20466;-71
2021/12/22 10:21:49;;;;;;;17.23;10.30;;;;;;;-0.54;100.00;102657.00;5022149;28;20448;-70
2021/12/22 10:24:14;;;;;;;19.83;10.80;;;;;;;-1.29;100.00;102579.28;5020794;28;20461;-72
2021/12/22 10:26:39;;;;;;;17.70;10.77;;;;;;;-1.23;100.00;102567.59;5020409;28;20446;-72
2021/12/22 10:29:07;;;;;;;18.77;10.73;;;;;;;-0.93;100.00;102626.56;5012184;28;20179;-72
2021/12/22 10:31:37;;;;;;;16.60;11.27;;;;;;;-0.63;100.00;102654.03;5013176;28;20262;-71
2021/12/22 10:34:12;;;;;;;18.10;11.73;;;;;;;-0.76;100.00;102633.56;5011006;28;20508;-72
2021/12/22 10:36:49;;;;;;;17.97;10.63;;;;;;;-0.50;100.00;102652.41;5012388;28;20441;-72
2021/12/22 10:39:31;;;;;;;15.53;9.80;;;;;;;-0.34;100.00;102655.09;5012275;28;20950;-72
2021/12/22 10:42:08;;;;;;;17.00;10.33;;;;;;;-0.58;100.00;102654.59;5000475;28;20430;-73
2021/12/22 10:44:36;;;;;;;13.80;9.00;;;;;;;-0.47;100.00;102650.47;5008187;28;20472;-72
2021/12/22 10:47:32;;;;;;;14.03;9.53;;;;;;;-0.63;100.00;102611.84;5019689;28;20454;-72
2021/12/22 10:50:16;;;;;;;20.93;10.30;;;;;;;-0.27;100.00;102661.72;5011826;28;20446;-72
2021/12/22 10:52:49;;;;;;;12.70;10.13;;;;;;;-0.14;100.00;102657.50;5019521;28;20431;-72
2021/12/22 10:55:15;;;;;;;16.17;10.23;;;;;;;-0.77;100.00;102538.81;5023066;28;21230;-72
2021/12/22 10:57:44;;;;;;;21.10;9.60;;;;;;;-0.39;100.00;102592.06;5021003;28;20478;-71
2021/12/22 11:00:18;;;;;;;16.23;8.87;;;;;;;-0.96;100.00;102509.97;5017652;28;20632;-73
2021/12/22 11:02:50;;;;;;;15.33;9.50;;;;;;;-0.46;100.00;102575.72;5016589;28;20639;-72
2021/12/22 11:05:28;;;;;;;15.03;9.47;;;;;;;-0.37;100.00;102582.28;5011793;28;20469;-72
2021/12/22 11:07:54;;;;;;;12.70;9.13;;;;;;;-0.40;100.00;102564.00;5017337;28;20804;-72
2021/12/22 11:10:28;;;;;;;11.70;7.47;;;;;;;-0.42;100.00;102536.84;5002639;28;20442;-73
2021/12/22 11:13:02;;;;;;;13.33;8.37;;;;;;;-0.21;100.00;102576.16;5013788;28;20354;-73
2021/12/22 11:15:27;;;;;;;13.73;8.07;;;;;;;-0.22;100.00;102559.47;5000422;28;20465;-74
2021/12/22 11:17:53;;;;;;;13.20;7.67;;;;;;;-0.33;100.00;102541.59;5004180;28;20508;-73
2021/12/22 11:20:22;;;;;;;11.63;8.30;;;;;;;-0.20;100.00;102583.97;5029968;28;20188;-72
2021/12/22 11:25:18;;;;;;;12.57;8.10;;;;;;;-0.11;100.00;102604.56;5008580;28;20531;-72
2021/12/22 11:27:44;;;;;;;11.90;8.50;;;;;;;-0.77;100.00;102476.41;5018222;28;20961;-73
2021/12/22 11:30:11;;;;;;;15.43;8.70;;;;;;;-0.34;100.00;102553.09;5029755;28;20446;-72